Time;durP1;ratioP1;P1;durP2;ratioP2;P2;SDS_P1;SDS_P2;PMS_P1;PMS_P2;Temp;Humidity;BMP_temperature;BMP_pressure;BME280_temperature;BME280_humidity;BME280_pressure;Samples;Min_cycle;Max_cycle;Signal;HPM_P1;HPM_P2
2021/08/20 00:01:57;;;;;;;5.32;3.42;;;26.60;48.10;;;;;;5031046;28;20084;-67
2021/08/20 00:04:23;;;;;;;5.57;3.55;;;26.60;47.50;;;;;;5022785;28;20049;-67
2021/08/20 00:06:48;;;;;;;7.22;4.25;;;26.30;47.60;;;;;;5022295;28;20041;-67
2021/08/20 00:09:14;;;;;;;7.07;4.35;;;26.20;48.70;;;;;;5007424;28;20049;-67
2021/08/20 00:11:40;;;;;;;5.22;4.20;;;26.30;49.00;;;;;;5010849;28;20056;-67
2021/08/20 00:14:08;;;;;;;5.15;3.97;;;26.20;49.10;;;;;;5023293;28;20051;-67
2021/08/20 00:16:34;;;;;;;4.47;3.95;;;26.20;49.50;;;;;;5029884;28;20025;-67
2021/08/20 00:19:00;;;;;;;5.25;3.40;;;26.20;50.00;;;;;;5019207;28;20060;-67
2021/08/20 00:21:27;;;;;;;5.70;3.92;;;26.10;50.20;;;;;;5031321;28;20030;-66
2021/08/20 00:23:53;;;;;;;5.72;3.70;;;26.10;50.40;;;;;;5013298;28;20652;-66
2021/08/20 00:26:19;;;;;;;10.27;3.88;;;26.00;50.40;;;;;;5008962;28;20030;-61
2021/08/20 00:28:44;;;;;;;6.45;4.20;;;25.90;50.90;;;;;;5025156;28;20071;-67
2021/08/20 00:31:10;;;;;;;6.65;4.50;;;25.90;51.00;;;;;;5025572;28;20038;-67
2021/08/20 00:33:37;;;;;;;10.80;3.95;;;25.80;51.10;;;;;;5012020;28;20056;-67
2021/08/20 00:36:04;;;;;;;6.95;3.65;;;25.80;51.40;;;;;;5008906;28;20087;-67
2021/08/20 00:38:37;;;;;;;5.78;3.53;;;26.00;51.30;;;;;;5023462;28;20033;-67
2021/08/20 00:41:04;;;;;;;5.05;3.33;;;25.90;51.20;;;;;;5025660;28;20045;-67
2021/08/20 00:43:30;;;;;;;6.05;4.00;;;25.80;51.00;;;;;;5017497;28;20499;-67
2021/08/20 00:45:57;;;;;;;5.00;3.80;;;25.80;51.20;;;;;;5013038;28;20049;-67
2021/08/20 00:48:23;;;;;;;7.97;4.35;;;25.90;51.50;;;;;;5021382;28;20052;-67
2021/08/20 00:50:57;;;;;;;4.55;3.75;;;25.80;51.70;;;;;;5021087;28;20037;-67
2021/08/20 00:53:23;;;;;;;7.85;4.05;;;25.80;51.90;;;;;;5008706;28;20164;-67
2021/08/20 00:55:49;;;;;;;5.35;3.50;;;25.90;51.30;;;;;;5013619;28;20125;-67
2021/08/20 00:58:15;;;;;;;4.85;4.20;;;25.90;51.40;;;;;;5015227;28;20037;-67
2021/08/20 01:00:40;;;;;;;6.38;4.15;;;25.80;51.00;;;;;;5016102;28;20468;-67
2021/08/20 01:03:06;;;;;;;5.07;3.70;;;25.80;51.20;;;;;;5013960;28;20035;-67
2021/08/20 01:05:32;;;;;;;4.35;3.75;;;25.70;51.30;;;;;;5029758;28;20127;-67
2021/08/20 01:07:59;;;;;;;8.48;3.80;;;25.70;51.20;;;;;;5020846;28;20499;-67
2021/08/20 01:10:25;;;;;;;4.13;3.30;;;25.80;51.50;;;;;;5026570;28;20450;-66
2021/08/20 01:12:50;;;;;;;5.95;3.63;;;25.70;51.50;;;;;;5023107;28;20025;-66
2021/08/20 01:15:16;;;;;;;6.50;3.67;;;25.60;51.80;;;;;;5008738;28;20128;-67
2021/08/20 01:17:42;;;;;;;4.82;3.53;;;25.70;51.90;;;;;;5024501;28;20105;-67
2021/08/20 01:20:10;;;;;;;4.43;3.58;;;25.60;51.90;;;;;;5023603;28;20058;-67
2021/08/20 01:22:37;;;;;;;5.35;4.07;;;25.60;51.80;;;;;;5003344;28;20069;-67
2021/08/20 01:25:03;;;;;;;5.07;3.90;;;25.50;51.90;;;;;;5006018;28;20099;-67
2021/08/20 01:27:33;;;;;;;4.20;3.30;;;25.50;51.80;;;;;;5015911;28;20406;-67
2021/08/20 01:29:59;;;;;;;5.15;3.75;;;25.50;52.00;;;;;;5009635;28;20029;-67
2021/08/20 01:32:26;;;;;;;4.40;4.00;;;25.50;52.50;;;;;;5024690;28;20424;-66
2021/08/20 01:34:51;;;;;;;6.43;3.78;;;25.50;51.70;;;;;;5025020;28;20042;-66
2021/08/20 01:37:17;;;;;;;4.32;3.58;;;25.40;51.70;;;;;;5022819;28;20043;-67
2021/08/20 01:39:43;;;;;;;7.03;3.95;;;25.30;51.80;;;;;;4992303;28;20069;-67
2021/08/20 01:42:08;;;;;;;5.97;3.60;;;25.30;51.90;;;;;;5006472;28;20036;-67
2021/08/20 01:44:34;;;;;;;4.55;4.05;;;25.30;51.60;;;;;;5009531;28;20468;-67
2021/08/20 01:47:00;;;;;;;6.15;3.58;;;25.40;51.40;;;;;;5011070;28;20064;-67
2021/08/20 01:49:25;;;;;;;5.07;3.60;;;25.30;51.40;;;;;;5021202;28;20448;-67
2021/08/20 01:51:51;;;;;;;5.00;3.15;;;25.30;51.40;;;;;;5032011;28;20073;-67
2021/08/20 01:54:16;;;;;;;5.72;3.45;;;25.20;51.30;;;;;;5023111;28;20491;-67
2021/08/20 01:56:42;;;;;;;4.30;3.38;;;25.30;51.30;;;;;;5012117;28;20037;-67
2021/08/20 01:59:08;;;;;;;3.53;2.90;;;25.30;51.00;;;;;;5008424;28;20046;-67
2021/08/20 02:01:34;;;;;;;5.20;3.15;;;25.50;51.00;;;;;;5027258;28;20112;-67
2021/08/20 02:04:00;;;;;;;4.85;3.30;;;25.40;50.70;;;;;;5012013;28;20125;-67
2021/08/20 02:06:26;;;;;;;7.03;3.17;;;25.50;50.70;;;;;;5007643;28;20414;-67
2021/08/20 02:08:52;;;;;;;9.52;3.75;;;25.50;50.60;;;;;;5002540;28;20030;-67
2021/08/20 02:11:17;;;;;;;7.72;3.40;;;25.50;50.40;;;;;;5015605;28;20030;-67
2021/08/20 02:13:44;;;;;;;3.50;3.20;;;25.50;50.10;;;;;;5016490;28;20399;-67
2021/08/20 02:16:10;;;;;;;3.50;3.00;;;25.40;49.60;;;;;;5027994;28;20147;-67
2021/08/20 02:18:35;;;;;;;3.63;2.90;;;25.40;49.80;;;;;;5013123;28;20484;-67
2021/08/20 02:21:02;;;;;;;3.53;3.17;;;25.40;49.90;;;;;;5026320;28;20041;-67
2021/08/20 02:23:27;;;;;;;3.90;3.03;;;25.40;49.90;;;;;;5021422;28;20038;-67
2021/08/20 02:25:53;;;;;;;3.20;2.90;;;25.50;49.80;;;;;;5021901;28;20041;-66
2021/08/20 02:28:18;;;;;;;4.93;3.20;;;25.30;49.60;;;;;;5024680;28;20041;-67
2021/08/20 02:30:44;;;;;;;5.38;3.35;;;25.40;49.80;;;;;;5006469;28;20086;-67
2021/08/20 02:33:10;;;;;;;3.53;2.92;;;25.30;49.80;;;;;;5006723;28;20057;-67
2021/08/20 02:35:36;;;;;;;3.58;2.75;;;25.30;49.80;;;;;;5003882;28;20041;-67
2021/08/20 02:38:01;;;;;;;4.10;2.92;;;25.30;49.90;;;;;;5011822;28;20065;-66
2021/08/20 02:40:27;;;;;;;6.25;3.08;;;25.40;49.80;;;;;;5012247;28;20037;-66
2021/08/20 02:42:53;;;;;;;3.92;3.33;;;25.40;50.00;;;;;;5023800;28;20044;-66
2021/08/20 02:45:18;;;;;;;3.50;2.80;;;25.40;49.50;;;;;;5010480;28;20038;-66
2021/08/20 02:47:46;;;;;;;8.02;2.95;;;25.40;49.40;;;;;;5028502;28;20034;-67
2021/08/20 02:50:12;;;;;;;4.65;3.00;;;25.50;49.40;;;;;;5020910;28;20033;-66
2021/08/20 02:52:37;;;;;;;4.35;2.60;;;25.40;49.20;;;;;;5024332;28;20392;-67
2021/08/20 02:55:04;;;;;;;6.10;3.25;;;25.40;49.30;;;;;;5020147;28;20045;-67
2021/08/20 02:57:29;;;;;;;5.43;3.38;;;25.40;49.10;;;;;;5026114;28;20126;-67
2021/08/20 02:59:55;;;;;;;4.85;3.10;;;25.40;49.80;;;;;;4965531;28;1093421;-66
2021/08/20 03:02:21;;;;;;;3.97;3.08;;;25.40;49.00;;;;;;5001985;28;20479;-66
2021/08/20 03:04:47;;;;;;;6.85;3.20;;;25.40;48.70;;;;;;4995698;28;20092;-67
2021/08/20 03:07:12;;;;;;;3.88;3.13;;;25.40;48.80;;;;;;5002876;28;20037;-67
2021/08/20 03:09:38;;;;;;;3.25;2.95;;;25.40;49.00;;;;;;5017864;28;20124;-67
2021/08/20 03:12:04;;;;;;;3.85;2.72;;;25.40;49.10;;;;;;5022134;28;20864;-67
2021/08/20 03:14:30;;;;;;;4.78;2.47;;;25.40;49.00;;;;;;5021845;28;20100;-66
2021/08/20 03:16:55;;;;;;;3.08;2.78;;;25.40;48.80;;;;;;5017467;28;20472;-66
2021/08/20 03:19:21;;;;;;;3.63;3.22;;;25.40;48.70;;;;;;5011694;28;20034;-66
2021/08/20 03:21:48;;;;;;;4.10;3.00;;;25.40;48.80;;;;;;5013161;28;20128;-67
2021/08/20 03:24:13;;;;;;;3.33;2.85;;;25.40;48.90;;;;;;5015850;28;20029;-67
2021/08/20 03:26:39;;;;;;;7.05;3.42;;;25.40;49.00;;;;;;5027883;28;20080;-66
2021/08/20 03:29:04;;;;;;;3.47;3.00;;;25.30;49.10;;;;;;5026521;28;20080;-66
2021/08/20 03:31:30;;;;;;;3.55;2.58;;;25.30;49.00;;;;;;5018468;28;20044;-67
2021/08/20 03:33:56;;;;;;;4.78;3.00;;;25.30;49.10;;;;;;5006029;28;20060;-67
2021/08/20 03:36:23;;;;;;;3.53;2.83;;;25.30;49.00;;;;;;5011208;28;20037;-66
2021/08/20 03:38:50;;;;;;;3.17;2.88;;;25.30;49.00;;;;;;5005050;28;20046;-67
2021/08/20 03:41:17;;;;;;;4.05;2.72;;;25.30;49.10;;;;;;5032612;28;20391;-67
2021/08/20 03:43:42;;;;;;;6.13;2.95;;;25.20;49.00;;;;;;5006917;28;20030;-67
2021/08/20 03:46:09;;;;;;;5.95;3.13;;;25.20;49.00;;;;;;5011101;28;20537;-67
2021/08/20 03:48:36;;;;;;;6.07;2.75;;;25.20;49.00;;;;;;5003239;28;20026;-67
2021/08/20 03:51:02;;;;;;;3.72;2.50;;;25.10;48.80;;;;;;5030343;28;20045;-67
2021/08/20 03:53:28;;;;;;;3.72;2.92;;;25.10;48.70;;;;;;5025556;28;20033;-67
2021/08/20 03:55:54;;;;;;;6.60;2.80;;;25.10;48.80;;;;;;5018219;28;20063;-67
2021/08/20 03:58:19;;;;;;;6.80;3.30;;;25.10;48.80;;;;;;5019032;28;20117;-67
2021/08/20 04:00:51;;;;;;;3.55;2.80;;;25.10;49.10;;;;;;5028424;28;20052;-67
2021/08/20 04:03:17;;;;;;;2.90;2.58;;;25.10;49.10;;;;;;5010320;28;20056;-67
2021/08/20 04:05:43;;;;;;;3.28;2.83;;;24.90;49.10;;;;;;5028285;28;20061;-67
2021/08/20 04:08:08;;;;;;;6.68;3.00;;;25.00;49.10;;;;;;5025790;28;20057;-67
2021/08/20 04:10:34;;;;;;;4.88;3.17;;;25.00;49.30;;;;;;5022312;28;20045;-67
2021/08/20 04:13:00;;;;;;;5.38;2.78;;;24.90;49.40;;;;;;5011177;28;20041;-67
2021/08/20 04:15:25;;;;;;;4.25;2.80;;;24.90;49.50;;;;;;5014205;28;20081;-67
2021/08/20 04:17:51;;;;;;;5.63;3.00;;;24.90;49.60;;;;;;5000400;28;20022;-64
2021/08/20 04:20:16;;;;;;;6.25;2.97;;;24.90;50.20;;;;;;5016640;28;20049;-67
2021/08/20 04:22:42;;;;;;;4.50;2.80;;;24.90;49.80;;;;;;5030053;28;20502;-67
2021/08/20 04:25:09;;;;;;;6.90;3.40;;;24.80;50.10;;;;;;5012871;28;20144;-67
2021/08/20 04:27:35;;;;;;;8.15;3.10;;;24.90;50.30;;;;;;5027840;28;20120;-67
2021/08/20 04:30:00;;;;;;;3.38;2.75;;;24.90;49.80;;;;;;5013329;28;20133;-67
2021/08/20 04:32:26;;;;;;;4.00;2.67;;;24.90;49.80;;;;;;5013179;28;20030;-66
2021/08/20 04:34:52;;;;;;;3.67;2.80;;;24.80;49.70;;;;;;5012933;28;20033;-66
2021/08/20 04:37:22;;;;;;;4.28;3.00;;;24.80;50.00;;;;;;5029767;28;20092;-66
2021/08/20 04:39:48;;;;;;;4.75;2.90;;;24.80;49.70;;;;;;5022998;28;20049;-67
2021/08/20 04:42:13;;;;;;;5.93;2.88;;;24.80;49.80;;;;;;5021126;28;20534;-66
2021/08/20 04:44:39;;;;;;;6.38;2.90;;;24.80;49.80;;;;;;5003565;28;20411;-66
2021/08/20 04:47:05;;;;;;;5.18;2.53;;;24.80;50.00;;;;;;5019432;28;20073;-66
2021/08/20 04:49:30;;;;;;;5.55;3.20;;;24.80;50.20;;;;;;5019513;28;20069;-66
2021/08/20 04:51:56;;;;;;;4.78;2.83;;;24.80;50.00;;;;;;5029959;28;20030;-67
2021/08/20 04:54:21;;;;;;;5.15;3.08;;;24.80;50.10;;;;;;5025939;28;20129;-66
2021/08/20 04:56:49;;;;;;;4.47;2.80;;;24.80;50.20;;;;;;5010746;28;20041;-67
2021/08/20 04:59:14;;;;;;;3.25;2.72;;;24.80;50.30;;;;;;5026794;28;20109;-67
2021/08/20 05:01:40;;;;;;;5.45;3.05;;;24.90;50.20;;;;;;5023886;28;20417;-67
2021/08/20 05:04:06;;;;;;;3.97;2.53;;;24.90;50.30;;;;;;5013190;28;20356;-67
2021/08/20 05:06:31;;;;;;;4.88;2.97;;;24.90;50.30;;;;;;5023979;28;20480;-67
2021/08/20 05:08:57;;;;;;;5.63;3.45;;;25.00;50.20;;;;;;5030379;28;20032;-67
2021/08/20 05:11:23;;;;;;;3.83;3.08;;;25.00;50.30;;;;;;5022643;28;20033;-66
2021/08/20 05:13:48;;;;;;;4.20;2.95;;;25.10;50.30;;;;;;5029339;28;20045;-68
2021/08/20 05:16:14;;;;;;;3.80;2.97;;;25.10;50.40;;;;;;5020755;28;20037;-67
2021/08/20 05:18:40;;;;;;;6.25;3.15;;;25.10;50.40;;;;;;5022507;28;20026;-67
2021/08/20 05:21:05;;;;;;;3.88;3.13;;;25.20;50.40;;;;;;5003656;28;20081;-68
2021/08/20 05:23:31;;;;;;;5.18;2.72;;;25.20;50.20;;;;;;5013736;28;20041;-66
2021/08/20 05:25:56;;;;;;;4.45;3.10;;;25.30;50.30;;;;;;5023132;28;20501;-65
2021/08/20 05:28:22;;;;;;;4.05;2.45;;;25.40;50.10;;;;;;5016613;28;20044;-66
2021/08/20 05:30:48;;;;;;;3.65;2.72;;;25.40;50.00;;;;;;5017061;28;20065;-66
2021/08/20 05:33:14;;;;;;;5.25;3.25;;;25.40;50.00;;;;;;5009457;28;20030;-67
2021/08/20 05:35:40;;;;;;;7.07;3.20;;;25.50;49.70;;;;;;5011057;28;20049;-67
2021/08/20 05:38:05;;;;;;;4.72;2.88;;;25.60;49.30;;;;;;5004381;28;20046;-67
2021/08/20 05:40:31;;;;;;;3.45;2.80;;;25.60;49.50;;;;;;5010236;28;20049;-67
2021/08/20 05:42:59;;;;;;;4.43;2.80;;;25.60;49.30;;;;;;5009209;28;20054;-66
2021/08/20 05:45:25;;;;;;;5.40;3.45;;;25.60;49.50;;;;;;5026001;28;20402;-67
2021/08/20 05:47:50;;;;;;;4.78;2.40;;;25.60;49.40;;;;;;5025785;28;20121;-67
2021/08/20 05:50:16;;;;;;;8.07;3.13;;;25.50;49.30;;;;;;5026356;28;20131;-67
2021/08/20 05:52:42;;;;;;;5.32;2.83;;;25.60;49.70;;;;;;5022894;28;20049;-67
2021/08/20 05:55:10;;;;;;;5.72;2.83;;;25.60;49.50;;;;;;5022743;28;20160;-67
2021/08/20 05:57:36;;;;;;;4.93;2.97;;;25.70;49.00;;;;;;5024299;28;20128;-66
2021/08/20 06:00:05;;;;;;;6.82;3.30;;;25.70;49.50;;;;;;5025358;28;20132;-67
2021/08/20 06:02:31;;;;;;;4.20;2.72;;;25.80;49.10;;;;;;5021754;28;23181;-66
2021/08/20 06:04:57;;;;;;;3.35;2.45;;;25.90;48.60;;;;;;5024025;28;20044;-67
2021/08/20 06:07:23;;;;;;;5.80;3.10;;;25.80;48.50;;;;;;5024696;28;20037;-67
2021/08/20 06:09:49;;;;;;;5.18;3.05;;;25.90;48.60;;;;;;5024653;28;20121;-67
2021/08/20 06:12:14;;;;;;;7.65;3.22;;;25.90;48.20;;;;;;5019254;28;20538;-66
2021/08/20 06:14:40;;;;;;;6.25;2.92;;;25.90;48.40;;;;;;5011619;28;20034;-67
2021/08/20 06:17:05;;;;;;;5.50;2.85;;;26.00;48.10;;;;;;5010395;28;20080;-67
2021/08/20 06:19:31;;;;;;;5.50;3.03;;;26.00;48.20;;;;;;5004074;28;20040;-67
2021/08/20 06:21:57;;;;;;;5.43;2.60;;;26.00;47.70;;;;;;5013974;28;20096;-66
2021/08/20 06:24:22;;;;;;;3.05;2.78;;;26.00;48.20;;;;;;5023063;28;20120;-67
2021/08/20 06:26:48;;;;;;;5.68;2.95;;;26.00;46.80;;;;;;5027334;28;20040;-67
2021/08/20 06:29:16;;;;;;;6.45;3.10;;;26.10;46.30;;;;;;5019697;28;20030;-67
2021/08/20 06:31:42;;;;;;;6.43;3.17;;;26.20;46.30;;;;;;5025001;28;20051;-66
2021/08/20 06:34:08;;;;;;;5.97;3.25;;;26.20;45.50;;;;;;5022110;28;20053;-66
2021/08/20 06:36:34;;;;;;;4.43;3.00;;;26.30;44.50;;;;;;5020554;28;20064;-67
2021/08/20 06:39:00;;;;;;;5.97;2.65;;;26.30;44.30;;;;;;5008648;28;20049;-66
2021/08/20 06:41:25;;;;;;;5.90;2.90;;;26.40;44.00;;;;;;5020414;28;20037;-66
2021/08/20 06:43:51;;;;;;;3.97;2.75;;;26.40;43.80;;;;;;5021427;28;20086;-66
2021/08/20 06:46:16;;;;;;;3.03;2.72;;;26.50;43.80;;;;;;5026037;28;20052;-66
2021/08/20 06:48:42;;;;;;;5.20;2.67;;;26.60;43.80;;;;;;5006935;28;20553;-66
2021/08/20 06:51:07;;;;;;;6.13;3.08;;;26.70;44.30;;;;;;5003245;28;20041;-66
2021/08/20 06:53:34;;;;;;;5.13;2.85;;;26.70;43.30;;;;;;5021331;28;20041;-66
2021/08/20 06:55:59;;;;;;;5.18;3.03;;;26.70;43.40;;;;;;5022341;28;20034;-66
2021/08/20 06:58:25;;;;;;;4.03;2.45;;;26.70;43.10;;;;;;5025693;28;20099;-67
2021/08/20 07:00:50;;;;;;;6.63;3.05;;;26.70;43.30;;;;;;5021725;28;20352;-67
2021/08/20 07:03:16;;;;;;;5.25;3.20;;;26.70;44.00;;;;;;5027232;28;20044;-67
2021/08/20 07:05:42;;;;;;;6.85;2.72;;;26.90;44.10;;;;;;5008065;28;20042;-67
2021/08/20 07:08:08;;;;;;;8.13;3.22;;;26.80;44.00;;;;;;5016720;28;20514;-67
2021/08/20 07:10:33;;;;;;;4.60;2.53;;;26.80;43.90;;;;;;5012397;28;20033;-67
2021/08/20 07:12:59;;;;;;;2.85;2.65;;;26.90;43.60;;;;;;5025939;28;20042;-67
2021/08/20 07:15:25;;;;;;;3.67;3.03;;;27.00;42.50;;;;;;5018331;28;20033;-66
2021/08/20 07:17:50;;;;;;;3.20;2.35;;;27.20;42.10;;;;;;5030064;28;20628;-67
2021/08/20 07:20:16;;;;;;;4.18;2.88;;;27.30;41.90;;;;;;5022028;28;20049;-67
2021/08/20 07:22:41;;;;;;;5.80;2.65;;;27.40;41.50;;;;;;5034181;28;20038;-66
2021/08/20 07:25:07;;;;;;;8.18;2.95;;;27.40;40.90;;;;;;5030130;28;20068;-66
2021/08/20 07:27:33;;;;;;;7.40;2.72;;;27.50;40.80;;;;;;5007974;28;20500;-66
2021/08/20 07:29:59;;;;;;;7.22;2.83;;;27.50;40.80;;;;;;5019837;28;20044;-66
2021/08/20 07:32:24;;;;;;;4.07;2.65;;;27.50;40.50;;;;;;5025124;28;20060;-66
2021/08/20 07:34:50;;;;;;;3.63;2.70;;;27.50;41.10;;;;;;5031420;28;20120;-66
2021/08/20 07:37:15;;;;;;;4.97;3.08;;;27.50;40.70;;;;;;5024662;28;20574;-67
2021/08/20 07:39:41;;;;;;;5.40;3.03;;;27.50;40.90;;;;;;5030564;28;20133;-66
2021/08/20 07:42:07;;;;;;;5.22;2.88;;;27.50;40.50;;;;;;5026021;28;20483;-66
2021/08/20 07:44:33;;;;;;;5.32;2.85;;;27.60;40.20;;;;;;5028566;28;20059;-66
2021/08/20 07:46:59;;;;;;;4.53;2.22;;;27.60;39.60;;;;;;5025436;28;20064;-66
2021/08/20 07:49:25;;;;;;;4.28;2.85;;;27.50;39.20;;;;;;5022756;28;20044;-66
2021/08/20 07:51:50;;;;;;;3.25;2.60;;;27.30;39.00;;;;;;5025416;28;20033;-66
2021/08/20 07:54:16;;;;;;;3.80;2.38;;;27.30;39.90;;;;;;5028996;28;20041;-66
2021/08/20 07:56:42;;;;;;;3.90;2.60;;;27.40;39.20;;;;;;5013027;28;20048;-67
2021/08/20 07:59:07;;;;;;;3.65;2.10;;;27.50;38.10;;;;;;5029034;28;20045;-66
2021/08/20 08:01:34;;;;;;;2.63;1.98;;;27.40;37.00;;;;;;5024636;28;20104;-66
2021/08/20 08:03:59;;;;;;;4.15;1.90;;;27.50;36.30;;;;;;5024425;28;20073;-66
2021/08/20 08:06:26;;;;;;;3.30;1.85;;;27.60;35.30;;;;;;5027582;28;20446;-67
2021/08/20 08:08:53;;;;;;;2.45;2.00;;;27.50;35.50;;;;;;5016120;28;20124;-61
2021/08/20 08:11:19;;;;;;;4.72;1.90;;;27.60;35.90;;;;;;5013853;28;20040;-66
2021/08/20 08:13:45;;;;;;;2.42;1.95;;;27.80;36.00;;;;;;5002707;28;20124;-67
2021/08/20 08:16:11;;;;;;;3.60;2.25;;;27.80;35.30;;;;;;5005901;28;20558;-67
2021/08/20 08:18:36;;;;;;;2.47;2.28;;;27.90;35.20;;;;;;5002426;28;20089;-66
2021/08/20 08:21:03;;;;;;;2.92;2.45;;;27.80;34.90;;;;;;5000546;28;20092;-66
2021/08/20 08:23:29;;;;;;;2.92;2.50;;;27.80;35.50;;;;;;5019286;28;20055;-66
2021/08/20 08:25:54;;;;;;;2.40;2.10;;;27.90;35.90;;;;;;5020773;28;20145;-66
2021/08/20 08:28:22;;;;;;;3.83;2.13;;;28.00;35.40;;;;;;5026879;28;20037;-66
2021/08/20 08:30:49;;;;;;;3.65;2.00;;;27.70;35.80;;;;;;5029909;28;20048;-66
2021/08/20 08:33:15;;;;;;;2.80;2.50;;;27.70;35.80;;;;;;5023634;28;20049;-67
2021/08/20 08:35:41;;;;;;;4.03;2.28;;;27.80;36.00;;;;;;5028387;28;20038;-67
2021/08/20 08:38:10;;;;;;;4.63;2.15;;;27.80;35.80;;;;;;5016909;28;20037;-67
2021/08/20 08:40:38;;;;;;;3.65;2.40;;;27.70;35.90;;;;;;5017911;28;20054;-67
2021/08/20 08:43:06;;;;;;;4.25;2.42;;;27.80;36.40;;;;;;5016996;28;20052;-67
2021/08/20 08:45:32;;;;;;;3.10;2.33;;;27.70;36.30;;;;;;5012358;28;20395;-67
2021/08/20 08:48:00;;;;;;;3.33;2.42;;;27.80;36.30;;;;;;5027992;28;20037;-66
2021/08/20 08:50:26;;;;;;;5.22;2.60;;;27.80;36.70;;;;;;5023425;28;20040;-67
2021/08/20 08:52:52;;;;;;;2.85;2.22;;;27.90;36.40;;;;;;5024594;28;20092;-67
2021/08/20 08:55:17;;;;;;;3.47;2.60;;;27.90;36.80;;;;;;5024319;28;20178;-68
2021/08/20 08:57:43;;;;;;;2.25;2.13;;;27.90;36.70;;;;;;5009153;28;20069;-66
2021/08/20 09:00:09;;;;;;;7.18;2.78;;;28.00;36.00;;;;;;5023804;28;20060;-67
2021/08/20 09:02:35;;;;;;;4.18;2.50;;;28.20;35.90;;;;;;5029206;28;20038;-67
2021/08/20 09:05:06;;;;;;;2.55;2.25;;;28.20;35.10;;;;;;5005786;28;20059;-66
2021/08/20 09:07:36;;;;;;;3.05;2.10;;;28.20;35.20;;;;;;5026410;28;20391;-67
2021/08/20 09:10:17;;;;;;;4.32;2.25;;;28.10;34.60;;;;;;5018887;28;20403;-66
2021/08/20 09:12:57;;;;;;;3.10;2.30;;;28.30;35.30;;;;;;5013741;28;20100;-67
2021/08/20 09:15:26;;;;;;;3.20;2.13;;;28.30;34.80;;;;;;5002429;28;20404;-65
2021/08/20 09:17:59;;;;;;;3.22;2.30;;;28.20;35.40;;;;;;5011467;28;20041;-68
2021/08/20 09:20:34;;;;;;;3.10;2.63;;;28.30;35.70;;;;;;5020407;28;20219;-67
2021/08/20 09:23:02;;;;;;;2.78;2.17;;;28.30;36.10;;;;;;5018662;28;20062;-67
2021/08/20 09:25:32;;;;;;;3.67;2.45;;;28.10;36.40;;;;;;5001396;28;20037;-65
2021/08/20 09:28:25;;;;;;;5.30;2.50;;;28.20;36.00;;;;;;5009448;28;20140;-66
2021/08/20 09:30:53;;;;;;;4.68;2.60;;;28.30;35.40;;;;;;5024064;28;20559;-67
2021/08/20 09:33:21;;;;;;;2.47;2.15;;;28.20;36.10;;;;;;5013282;28;20053;-67
2021/08/20 09:35:57;;;;;;;4.45;2.13;;;28.20;35.80;;;;;;5022208;28;20613;-67
2021/08/20 09:38:23;;;;;;;2.60;2.13;;;28.40;35.20;;;;;;5009617;28;20080;-68
2021/08/20 09:40:53;;;;;;;6.10;2.35;;;28.60;34.90;;;;;;5023402;28;20045;-68
2021/08/20 09:43:25;;;;;;;3.42;2.55;;;28.70;34.00;;;;;;5012201;28;20041;-67
2021/08/20 09:46:06;;;;;;;4.93;2.53;;;28.50;33.00;;;;;;5017403;28;20041;-67
2021/08/20 09:48:49;;;;;;;3.35;2.42;;;28.60;33.40;;;;;;5003432;28;20136;-67
2021/08/20 09:51:37;;;;;;;4.07;2.35;;;28.60;33.90;;;;;;5018039;28;20038;-67
2021/08/20 09:54:06;;;;;;;3.38;2.88;;;28.90;33.70;;;;;;4985219;28;20048;-67
2021/08/20 09:56:32;;;;;;;2.92;2.67;;;29.00;32.50;;;;;;5021935;28;20053;-67
2021/08/20 09:59:00;;;;;;;3.03;2.20;;;29.00;31.50;;;;;;5027649;28;20050;-67
2021/08/20 10:01:31;;;;;;;3.03;1.83;;;28.90;31.50;;;;;;5021088;28;20060;-66
2021/08/20 10:04:03;;;;;;;3.72;2.30;;;29.00;31.10;;;;;;5026069;28;20072;-66
2021/08/20 10:06:35;;;;;;;2.20;2.00;;;29.00;30.60;;;;;;5027403;28;20091;-67
2021/08/20 10:09:05;;;;;;;2.05;1.67;;;29.00;31.20;;;;;;5026127;28;20125;-67
2021/08/20 10:11:33;;;;;;;3.28;2.22;;;29.10;31.20;;;;;;5026329;28;20099;-66
2021/08/20 10:14:01;;;;;;;3.53;2.60;;;29.20;31.20;;;;;;5021975;28;20382;-65
2021/08/20 10:16:31;;;;;;;3.92;1.98;;;29.20;30.80;;;;;;5019357;28;20041;-66
2021/08/20 10:18:58;;;;;;;2.83;2.33;;;29.30;30.70;;;;;;5020582;28;20446;-67
2021/08/20 10:21:25;;;;;;;2.83;2.28;;;29.40;30.90;;;;;;5024742;28;20139;-65
2021/08/20 10:23:50;;;;;;;4.15;2.58;;;29.40;30.90;;;;;;5023696;28;20044;-66
2021/08/20 10:26:17;;;;;;;4.43;2.75;;;29.40;30.60;;;;;;5008356;28;20046;-67
2021/08/20 10:28:44;;;;;;;5.38;2.22;;;29.40;30.70;;;;;;5021571;28;20083;-67
2021/08/20 10:31:11;;;;;;;2.97;2.35;;;29.40;30.90;;;;;;5011483;28;20041;-67
2021/08/20 10:33:39;;;;;;;3.63;2.65;;;29.50;30.90;;;;;;5005043;28;20034;-67
2021/08/20 10:36:05;;;;;;;3.90;2.63;;;29.60;30.80;;;;;;5019139;28;20128;-67
2021/08/20 10:38:40;;;;;;;2.38;2.17;;;29.50;30.70;;;;;;5018953;28;20208;-67
2021/08/20 10:41:19;;;;;;;2.13;1.98;;;29.70;30.80;;;;;;5021675;28;20050;-67
2021/08/20 10:43:59;;;;;;;5.20;3.03;;;30.00;30.50;;;;;;5014950;28;20034;-67
2021/08/20 10:46:31;;;;;;;3.47;2.63;;;30.10;30.60;;;;;;5008842;28;20046;-67
2021/08/20 10:51:49;;;;;;;3.17;2.97;;;30.20;30.90;;;;;;5014354;28;20040;-67
2021/08/20 10:54:15;;;;;;;2.50;2.30;;;30.30;29.80;;;;;;5014518;28;20038;-67
2021/08/20 10:56:41;;;;;;;3.33;2.22;;;30.50;29.20;;;;;;5010181;28;20121;-67
2021/08/20 10:59:06;;;;;;;4.53;2.60;;;30.50;29.30;;;;;;5011844;28;20633;-67
2021/08/20 11:01:32;;;;;;;2.88;2.40;;;30.50;29.30;;;;;;5029236;28;20029;-67
2021/08/20 11:03:59;;;;;;;2.67;2.45;;;30.70;28.90;;;;;;5027492;28;20132;-67
2021/08/20 11:06:52;;;;;;;4.47;2.90;;;30.60;29.00;;;;;;5030232;28;20047;-67
2021/08/20 11:09:32;;;;;;;4.45;3.05;;;30.90;28.40;;;;;;5008495;28;20077;-68
2021/08/20 11:11:59;;;;;;;3.53;2.67;;;31.00;27.90;;;;;;5009800;28;20183;-67
2021/08/20 11:14:27;;;;;;;5.78;3.05;;;31.10;27.80;;;;;;5007999;28;20034;-67
2021/08/20 11:16:53;;;;;;;2.90;2.30;;;31.20;27.70;;;;;;5019021;28;20046;-68
2021/08/20 11:19:44;;;;;;;3.30;2.60;;;31.20;27.40;;;;;;5028285;28;20048;-68
2021/08/20 11:22:18;;;;;;;5.13;2.22;;;31.30;27.20;;;;;;5001052;28;20037;-67
2021/08/20 11:25:07;;;;;;;2.60;2.35;;;31.40;26.80;;;;;;5021469;28;20051;-68
2021/08/20 11:27:32;;;;;;;3.78;2.38;;;31.80;25.90;;;;;;4998931;28;20068;-67
2021/08/20 11:29:58;;;;;;;5.03;2.70;;;31.70;26.30;;;;;;5026332;28;20058;-67
2021/08/20 11:32:23;;;;;;;4.25;2.83;;;31.80;25.90;;;;;;5029524;28;20128;-67
2021/08/20 11:34:53;;;;;;;3.22;2.95;;;31.80;25.90;;;;;;5029343;28;20049;-67
2021/08/20 11:37:18;;;;;;;3.00;2.70;;;31.90;25.60;;;;;;5005901;28;20037;-67
2021/08/20 11:40:07;;;;;;;4.82;3.00;;;32.10;25.20;;;;;;5025905;28;20099;-67
2021/08/20 11:42:34;;;;;;;2.83;2.63;;;34.40;28.00;;;;;;5002414;28;20072;-67
2021/08/20 11:45:20;;;;;;;2.80;2.60;;;35.10;22.20;;;;;;5029562;28;20133;-68
2021/08/20 11:47:46;;;;;;;5.20;2.60;;;35.20;21.30;;;;;;5022514;28;20399;-67
2021/08/20 11:50:12;;;;;;;4.53;2.53;;;36.50;21.20;;;;;;5030401;28;20042;-68
2021/08/20 11:52:57;;;;;;;3.78;3.30;;;36.70;21.30;;;;;;5010272;28;20034;-67
2021/08/20 11:55:23;;;;;;;3.58;2.95;;;35.80;20.40;;;;;;5017439;28;20060;-68
2021/08/20 11:57:49;;;;;;;3.22;2.72;;;35.40;21.70;;;;;;5001584;28;20041;-68
2021/08/20 12:00:15;;;;;;;3.97;2.97;;;36.60;21.00;;;;;;5009395;28;20084;-67
2021/08/20 12:02:42;;;;;;;6.00;3.10;;;;;;;;;;5006467;28;20045;-68
2021/08/20 12:05:18;;;;;;;3.15;2.80;;;38.90;48.40;;;;;;5006643;28;20038;-67
2021/08/20 12:07:44;;;;;;;5.05;3.97;;;39.40;19.20;;;;;;5009233;28;20081;-67
2021/08/20 12:10:11;;;;;;;3.08;2.78;;;40.90;16.90;;;;;;5009192;28;20034;-67
2021/08/20 12:12:41;;;;;;;3.17;2.92;;;41.60;16.00;;;;;;5004784;28;20039;-68
2021/08/20 12:15:07;;;;;;;4.80;3.60;;;42.50;15.40;;;;;;5019836;28;20125;-67
2021/08/20 12:17:34;;;;;;;6.43;3.35;;;42.60;15.40;;;;;;5010034;28;20033;-68
2021/08/20 12:20:02;;;;;;;3.78;2.95;;;42.70;14.80;;;;;;5026836;28;20065;-67
2021/08/20 12:22:36;;;;;;;4.63;3.30;;;43.90;14.80;;;;;;5025860;28;20036;-67
2021/08/20 12:25:21;;;;;;;3.28;2.97;;;43.10;14.10;;;;;;5022799;28;20065;-68
2021/08/20 12:27:48;;;;;;;3.83;3.05;;;42.50;14.00;;;;;;5007088;28;20125;-68
2021/08/20 12:30:22;;;;;;;4.65;3.50;;;40.80;15.40;;;;;;5009618;28;20092;-67
2021/08/20 12:32:56;;;;;;;7.38;3.17;;;41.00;15.10;;;;;;5004481;28;20076;-68
2021/08/20 12:35:22;;;;;;;6.55;3.53;;;41.10;14.60;;;;;;5026234;28;20064;-68
2021/08/20 12:38:11;;;;;;;3.80;3.50;;;40.90;14.60;;;;;;5022953;28;20057;-68
2021/08/20 12:40:49;;;;;;;3.72;3.53;;;40.50;15.00;;;;;;5003370;28;20092;-67
2021/08/20 12:43:27;;;;;;;3.60;3.38;;;41.00;14.70;;;;;;5023015;28;20368;-67
2021/08/20 12:46:10;;;;;;;3.97;3.70;;;40.90;14.80;;;;;;5011645;28;20041;-67
2021/08/20 12:48:42;;;;;;;4.55;3.58;;;40.60;14.00;;;;;;4995178;28;20033;-68
2021/08/20 12:51:11;;;;;;;4.45;4.10;;;41.90;14.00;;;;;;5008098;28;20034;-67
2021/08/20 12:53:38;;;;;;;5.10;3.78;;;42.30;13.30;;;;;;5002876;28;20041;-68